createdAt,value
2022-08-19T00:01:34.311Z,44.21
2022-08-19T00:04:15.828Z,44.24
2022-08-19T00:06:57.874Z,44.20
2022-08-19T00:09:37.760Z,44.14
2022-08-19T00:12:09.752Z,43.68
2022-08-19T00:14:47.181Z,44.20
2022-08-19T00:17:20.732Z,44.56
2022-08-19T00:20:06.784Z,44.10
2022-08-19T00:22:44.456Z,44.38
2022-08-19T00:25:19.621Z,44.08
2022-08-19T00:28:05.801Z,43.99
2022-08-19T00:30:49.747Z,44.00
2022-08-19T00:33:23.882Z,44.04
2022-08-19T00:35:59.581Z,44.20
2022-08-19T00:38:37.627Z,44.55
2022-08-19T00:41:17.341Z,44.52
2022-08-19T00:44:05.473Z,44.42
2022-08-19T00:46:41.858Z,44.95
2022-08-19T00:49:30.904Z,44.45
2022-08-19T00:52:11.267Z,44.50
2022-08-19T00:54:47.824Z,44.31
2022-08-19T00:57:51.030Z,44.27
2022-08-19T01:00:30.254Z,44.90
2022-08-19T01:03:03.037Z,44.77
2022-08-19T01:05:41.385Z,44.22
2022-08-19T01:08:19.869Z,44.27
2022-08-19T01:11:00.614Z,43.88
2022-08-19T01:13:49.475Z,43.58
2022-08-19T01:16:30.255Z,43.22
2022-08-19T01:19:26.336Z,43.04
2022-08-19T01:22:14.234Z,43.14
2022-08-19T01:24:52.664Z,43.29
2022-08-19T01:27:35.260Z,42.41
2022-08-19T01:30:33.422Z,42.66
2022-08-19T01:33:09.878Z,41.86
2022-08-19T01:35:41.052Z,41.34
2022-08-19T01:38:26.559Z,41.86
2022-08-19T01:41:00.899Z,42.66
2022-08-19T01:44:13.175Z,43.18
2022-08-19T01:46:50.021Z,43.56
2022-08-19T01:49:27.599Z,43.66
2022-08-19T01:52:04.158Z,43.94
2022-08-19T01:54:37.907Z,43.94
2022-08-19T01:57:19.989Z,44.15
2022-08-19T01:59:52.603Z,44.16
2022-08-19T02:02:28.319Z,44.71
2022-08-19T02:05:04.797Z,44.38
2022-08-19T02:07:41.842Z,44.69
2022-08-19T02:10:23.205Z,44.60
2022-08-19T02:12:55.005Z,44.90
2022-08-19T02:15:28.398Z,44.98
2022-08-19T02:18:11.252Z,44.79
2022-08-19T02:20:53.905Z,44.96
2022-08-19T02:23:28.934Z,44.96
2022-08-19T02:26:11.106Z,45.30
2022-08-19T02:28:45.063Z,45.05
2022-08-19T02:31:26.049Z,45.23
2022-08-19T02:34:02.997Z,45.10
2022-08-19T02:36:42.428Z,45.03
2022-08-19T02:39:23.720Z,45.10
2022-08-19T02:42:00.586Z,44.78
2022-08-19T02:44:38.470Z,45.08
2022-08-19T02:47:18.004Z,45.37
2022-08-19T02:49:54.192Z,45.12
2022-08-19T02:52:28.973Z,45.15
2022-08-19T02:55:11.776Z,45.32
2022-08-19T02:57:50.719Z,45.43
2022-08-19T03:00:26.326Z,45.06
2022-08-19T03:03:15.948Z,45.11
2022-08-19T03:05:56.843Z,45.08
2022-08-19T03:08:38.656Z,45.39
2022-08-19T03:11:26.270Z,45.42
2022-08-19T03:14:06.001Z,45.51
2022-08-19T03:16:49.385Z,45.20
2022-08-19T03:19:23.120Z,45.28
2022-08-19T03:21:59.704Z,45.38
2022-08-19T03:24:41.516Z,45.31
2022-08-19T03:27:16.065Z,45.44
2022-08-19T03:29:54.944Z,45.44
2022-08-19T03:32:32.741Z,45.38
2022-08-19T03:35:12.127Z,45.64
2022-08-19T03:37:44.827Z,45.32
2022-08-19T03:40:16.976Z,44.96
2022-08-19T03:42:49.410Z,45.03
2022-08-19T03:45:22.758Z,45.17
2022-08-19T03:48:02.316Z,45.34
2022-08-19T03:50:39.272Z,45.07
2022-08-19T03:53:13.105Z,45.18
2022-08-19T03:55:46.041Z,45.24
2022-08-19T03:58:25.268Z,45.31
2022-08-19T04:01:01.629Z,45.05
2022-08-19T04:03:43.115Z,45.05
2022-08-19T04:06:25.354Z,45.35
2022-08-19T04:09:02.414Z,45.01
2022-08-19T04:11:48.736Z,44.83
2022-08-19T04:14:36.613Z,44.67
2022-08-19T04:17:09.889Z,44.73
2022-08-19T04:19:40.288Z,44.47
2022-08-19T04:22:21.953Z,44.48
2022-08-19T04:25:00.117Z,44.35
2022-08-19T04:27:36.358Z,44.47
2022-08-19T04:30:13.047Z,43.97
2022-08-19T04:32:48.103Z,43.80
2022-08-19T04:35:24.856Z,43.73
2022-08-19T04:38:07.383Z,43.37
2022-08-19T04:40:58.871Z,43.73
2022-08-19T04:43:36.502Z,43.51
2022-08-19T04:46:38.136Z,43.50
2022-08-19T04:49:25.238Z,43.25
2022-08-19T04:51:58.737Z,42.96
2022-08-19T04:54:38.727Z,43.15
2022-08-19T04:57:18.925Z,43.38
2022-08-19T04:59:57.867Z,42.79
2022-08-19T05:02:33.600Z,42.94
2022-08-19T05:05:09.863Z,43.03
2022-08-19T05:07:46.020Z,42.97
2022-08-19T05:10:24.484Z,42.66
2022-08-19T05:13:03.706Z,42.70
2022-08-19T05:15:50.493Z,42.59
2022-08-19T05:18:42.195Z,42.64
2022-08-19T05:21:35.659Z,42.23
2022-08-19T05:24:20.686Z,42.72
2022-08-19T05:26:57.546Z,42.59
2022-08-19T05:29:33.433Z,42.51
2022-08-19T05:32:14.675Z,42.59
2022-08-19T05:34:51.577Z,42.70
2022-08-19T05:37:30.356Z,42.83
2022-08-19T05:40:12.400Z,42.91
2022-08-19T05:42:55.238Z,42.42
2022-08-19T05:45:32.084Z,42.49
2022-08-19T05:48:05.266Z,42.48
2022-08-19T05:50:39.618Z,42.70
2022-08-19T05:53:17.538Z,42.91
2022-08-19T05:55:56.187Z,43.90
2022-08-19T05:58:32.758Z,42.85
2022-08-19T06:01:15.279Z,41.84
2022-08-19T06:03:49.901Z,42.24
2022-08-19T06:06:32.057Z,42.71
2022-08-19T06:09:09.089Z,42.84
2022-08-19T06:11:56.116Z,43.04
2022-08-19T06:14:41.701Z,42.52
2022-08-19T06:17:12.419Z,43.36
2022-08-19T06:19:48.228Z,43.05
2022-08-19T06:22:30.756Z,43.83
2022-08-19T06:25:05.688Z,43.87
2022-08-19T06:27:58.933Z,43.06
2022-08-19T06:30:39.400Z,42.18
2022-08-19T06:33:17.133Z,42.48
2022-08-19T06:36:00.406Z,42.38
2022-08-19T06:38:38.020Z,41.29
2022-08-19T06:41:26.054Z,41.11
2022-08-19T06:44:08.336Z,40.38
2022-08-19T06:46:54.955Z,41.79
2022-08-19T06:49:33.884Z,41.71
2022-08-19T06:52:18.563Z,43.32
2022-08-19T06:54:56.461Z,43.48
2022-08-19T06:57:43.433Z,43.14
2022-08-19T07:00:21.898Z,44.31
2022-08-19T07:03:06.331Z,46.61
2022-08-19T07:05:45.913Z,47.02
2022-08-19T07:08:20.315Z,46.98
2022-08-19T07:10:51.335Z,47.23
2022-08-19T07:13:27.377Z,47.63
2022-08-19T07:15:55.417Z,47.19
2022-08-19T07:18:26.048Z,46.24
2022-08-19T07:21:06.902Z,45.58
2022-08-19T07:23:40.540Z,45.87
2022-08-19T07:26:27.951Z,46.84
2022-08-19T07:29:07.179Z,47.17
2022-08-19T07:31:38.546Z,48.49
2022-08-19T07:34:12.821Z,48.39
2022-08-19T07:36:45.603Z,48.16
2022-08-19T07:39:17.663Z,48.40
2022-08-19T07:41:52.040Z,48.68
2022-08-19T07:44:25.342Z,48.13
2022-08-19T07:47:02.913Z,47.28
2022-08-19T07:49:34.113Z,47.93
2022-08-19T07:52:07.644Z,48.00
2022-08-19T07:54:38.685Z,48.42
2022-08-19T07:57:06.842Z,47.62
2022-08-19T07:59:36.553Z,47.48
2022-08-19T08:02:10.404Z,48.23
2022-08-19T08:04:57.283Z,49.26
2022-08-19T08:07:48.952Z,47.68
2022-08-19T08:10:20.704Z,46.70
2022-08-19T08:13:09.845Z,47.00
2022-08-19T08:15:47.415Z,44.83
2022-08-19T08:18:20.089Z,43.97
2022-08-19T08:20:55.939Z,44.13
2022-08-19T08:23:35.842Z,45.57
2022-08-19T08:26:21.310Z,46.46
2022-08-19T08:28:57.901Z,47.31
2022-08-19T08:31:29.464Z,48.12
2022-08-19T08:34:06.790Z,48.74
2022-08-19T08:36:47.815Z,49.03
2022-08-19T08:39:25.667Z,49.44
2022-08-19T08:42:10.367Z,49.33
2022-08-19T08:45:01.171Z,49.33
2022-08-19T08:47:44.031Z,49.42
2022-08-19T08:50:20.795Z,49.22
2022-08-19T08:53:02.923Z,48.35
2022-08-19T08:55:36.914Z,47.26
2022-08-19T08:58:53.877Z,47.54
2022-08-19T09:01:37.905Z,48.50
2022-08-19T09:04:11.551Z,48.28
2022-08-19T09:07:18.105Z,48.22
2022-08-19T09:10:26.064Z,48.44
2022-08-19T09:13:12.247Z,48.36
2022-08-19T09:15:53.663Z,48.17
2022-08-19T09:18:48.379Z,48.63
2022-08-19T09:21:25.975Z,48.48
2022-08-19T09:24:05.711Z,47.72
2022-08-19T09:26:51.829Z,47.97
2022-08-19T09:29:32.657Z,48.03
2022-08-19T09:32:05.766Z,48.11
2022-08-19T09:35:08.709Z,48.30
2022-08-19T09:37:47.679Z,48.12
2022-08-19T09:40:30.097Z,48.18
2022-08-19T09:43:13.968Z,48.14
2022-08-19T09:45:45.699Z,48.48
2022-08-19T09:48:27.444Z,48.54
2022-08-19T09:51:11.842Z,48.94
2022-08-19T09:53:49.284Z,48.89
2022-08-19T09:56:42.388Z,48.52
2022-08-19T09:59:18.730Z,48.60
2022-08-19T10:01:52.660Z,48.37
2022-08-19T10:04:50.070Z,48.46
2022-08-19T10:07:40.175Z,48.54
2022-08-19T10:10:14.174Z,48.42
2022-08-19T10:13:01.696Z,48.40
2022-08-19T10:15:47.425Z,48.74
2022-08-19T10:18:29.229Z,48.85
2022-08-19T10:21:22.174Z,48.66
2022-08-19T10:24:01.722Z,48.70
2022-08-19T10:26:48.875Z,48.85
2022-08-19T10:29:39.882Z,48.81
2022-08-19T10:32:34.200Z,49.49
2022-08-19T10:35:09.221Z,49.73
2022-08-19T10:37:42.373Z,48.95
2022-08-19T10:40:33.733Z,48.37
2022-08-19T10:43:09.074Z,48.65
2022-08-19T10:45:52.202Z,48.41
2022-08-19T10:48:23.713Z,48.48
2022-08-19T10:51:22.949Z,48.59
2022-08-19T10:53:59.188Z,48.78
2022-08-19T10:56:53.607Z,48.64
2022-08-19T10:59:31.449Z,48.85
2022-08-19T11:02:13.929Z,48.68
2022-08-19T11:04:44.250Z,48.81
2022-08-19T11:07:18.027Z,48.54
2022-08-19T11:09:50.955Z,48.52
2022-08-19T11:12:21.261Z,48.56
2022-08-19T11:14:57.148Z,48.61
2022-08-19T11:17:34.077Z,48.67
2022-08-19T11:20:10.949Z,48.57
2022-08-19T11:22:44.226Z,48.34
2022-08-19T11:25:12.699Z,48.70
2022-08-19T11:27:53.324Z,48.45
2022-08-19T11:30:24.618Z,48.30
2022-08-19T11:33:01.822Z,48.41
2022-08-19T11:35:34.763Z,49.12
2022-08-19T11:38:10.940Z,49.30
2022-08-19T11:40:46.672Z,49.48
2022-08-19T11:43:25.619Z,50.02
2022-08-19T11:46:08.422Z,50.30
2022-08-19T11:48:46.819Z,49.63
2022-08-19T11:51:26.065Z,49.51
2022-08-19T11:54:06.266Z,49.30
2022-08-19T11:56:50.051Z,48.94
2022-08-19T11:59:30.792Z,48.64
2022-08-19T12:02:06.816Z,48.67
2022-08-19T12:04:44.253Z,48.86
2022-08-19T12:07:26.562Z,49.38
2022-08-19T12:10:10.802Z,49.01
2022-08-19T12:12:58.603Z,48.90
2022-08-19T12:15:45.013Z,48.72
2022-08-19T12:18:21.545Z,48.35
2022-08-19T12:21:01.665Z,48.07
2022-08-19T12:23:40.808Z,48.74
2022-08-19T12:26:27.525Z,49.26
2022-08-19T12:29:06.557Z,48.62
2022-08-19T12:31:45.980Z,49.22
2022-08-19T12:34:22.857Z,49.28
2022-08-19T12:36:59.260Z,49.37
2022-08-19T12:39:42.156Z,48.78
2022-08-19T12:42:30.149Z,47.71
2022-08-19T12:45:13.752Z,47.77
2022-08-19T12:47:50.710Z,47.25
2022-08-19T12:50:37.002Z,46.75
2022-08-19T12:53:17.103Z,46.09
2022-08-19T12:56:04.332Z,43.31
2022-08-19T12:58:50.843Z,40.20
2022-08-19T13:01:33.761Z,37.61
2022-08-19T13:04:11.417Z,37.48
2022-08-19T13:06:50.217Z,38.61
2022-08-19T13:09:25.915Z,39.92
2022-08-19T13:12:02.203Z,41.05
2022-08-19T13:14:35.934Z,42.15
2022-08-19T13:17:15.355Z,44.02
2022-08-19T13:19:54.639Z,44.48
2022-08-19T13:22:37.012Z,45.14
2022-08-19T13:25:18.960Z,45.99
2022-08-19T13:27:53.448Z,46.38
2022-08-19T13:30:47.536Z,47.23
2022-08-19T13:33:27.917Z,47.43
2022-08-19T13:36:11.959Z,47.62
2022-08-19T13:38:56.344Z,47.27
2022-08-19T13:41:33.197Z,46.50
2022-08-19T13:44:14.557Z,45.68
2022-08-19T13:46:55.267Z,45.25
2022-08-19T13:49:32.246Z,46.15
2022-08-19T13:52:05.021Z,46.32
2022-08-19T13:54:48.890Z,45.97
2022-08-19T13:57:18.992Z,46.14
2022-08-19T14:00:01.673Z,45.30
2022-08-19T14:02:38.978Z,45.16
2022-08-19T14:05:28.475Z,45.78
2022-08-19T14:08:07.798Z,45.75
2022-08-19T14:11:06.242Z,45.85
2022-08-19T14:13:46.010Z,46.33
2022-08-19T14:16:30.088Z,46.43
2022-08-19T14:19:03.476Z,46.85
2022-08-19T14:21:41.786Z,46.88
2022-08-19T14:24:27.624Z,47.16
2022-08-19T14:27:07.975Z,46.63
2022-08-19T14:29:43.058Z,46.26
2022-08-19T14:32:20.072Z,45.38
2022-08-19T14:35:02.596Z,44.38
2022-08-19T14:37:45.527Z,44.31
2022-08-19T14:40:26.962Z,44.25
2022-08-19T14:43:06.269Z,43.79
2022-08-19T14:45:44.384Z,44.06
2022-08-19T14:48:19.257Z,43.38
2022-08-19T14:50:59.429Z,42.72
2022-08-19T14:53:35.907Z,42.76
2022-08-19T14:56:19.195Z,43.02
2022-08-19T14:59:00.426Z,43.76
2022-08-19T15:01:36.435Z,44.16
2022-08-19T15:04:07.901Z,44.68
2022-08-19T15:06:47.344Z,43.76
2022-08-19T15:09:20.799Z,42.92
2022-08-19T15:12:01.224Z,40.64
2022-08-19T15:14:38.851Z,38.15
2022-08-19T15:17:15.014Z,36.65
2022-08-19T15:19:45.112Z,35.54
2022-08-19T15:22:24.380Z,36.22
2022-08-19T15:24:57.501Z,38.14
2022-08-19T15:27:40.146Z,39.92
2022-08-19T15:30:26.736Z,41.21
2022-08-19T15:33:04.250Z,42.54
2022-08-19T15:35:41.264Z,43.63
2022-08-19T15:38:14.109Z,44.63
2022-08-19T15:41:06.153Z,45.06
2022-08-19T15:43:42.657Z,45.95
2022-08-19T15:46:11.094Z,46.20
2022-08-19T15:48:57.440Z,46.20
2022-08-19T15:51:48.367Z,46.37
2022-08-19T15:54:29.553Z,47.17
2022-08-19T15:57:24.463Z,47.47
2022-08-19T16:00:16.771Z,47.18
2022-08-19T16:03:16.430Z,47.09
2022-08-19T16:06:06.726Z,47.27
2022-08-19T16:08:48.751Z,47.31
2022-08-19T16:11:29.255Z,47.29
2022-08-19T16:14:07.356Z,47.23
2022-08-19T16:16:40.645Z,46.99
2022-08-19T16:19:17.085Z,47.36
2022-08-19T16:21:50.031Z,47.30
2022-08-19T16:24:26.395Z,47.52
2022-08-19T16:27:01.631Z,47.36
2022-08-19T16:29:39.050Z,47.43
2022-08-19T16:32:11.978Z,47.41
2022-08-19T16:34:44.246Z,47.35
2022-08-19T16:37:19.744Z,46.98
2022-08-19T16:39:52.549Z,47.20
2022-08-19T16:42:21.340Z,47.48
2022-08-19T16:44:57.770Z,47.16
2022-08-19T16:47:30.373Z,47.31
2022-08-19T16:49:59.410Z,47.34
2022-08-19T16:52:30.302Z,47.32
2022-08-19T16:55:13.248Z,47.35
2022-08-19T16:57:46.806Z,47.71
2022-08-19T17:00:26.064Z,47.50
2022-08-19T17:03:15.143Z,47.62
2022-08-19T17:05:57.408Z,47.45
2022-08-19T17:08:32.375Z,47.01
2022-08-19T17:11:18.104Z,47.53
2022-08-19T17:13:59.373Z,47.29
2022-08-19T17:16:42.553Z,47.42
2022-08-19T17:19:18.443Z,47.30
2022-08-19T17:21:57.187Z,47.40
2022-08-19T17:24:32.779Z,47.12
2022-08-19T17:27:13.004Z,47.23
2022-08-19T17:29:54.156Z,47.19
2022-08-19T17:32:35.300Z,47.04
2022-08-19T17:35:07.409Z,47.19
2022-08-19T17:37:46.363Z,47.03
2022-08-19T17:40:25.012Z,46.94
2022-08-19T17:43:04.384Z,47.04
2022-08-19T17:45:42.203Z,46.89
2022-08-19T17:48:20.844Z,47.16
2022-08-19T17:50:57.198Z,47.31
2022-08-19T17:53:34.057Z,47.05
2022-08-19T17:56:07.486Z,47.00
2022-08-19T17:58:55.617Z,47.05
2022-08-19T18:01:53.259Z,46.72
2022-08-19T18:04:33.271Z,47.16
2022-08-19T18:07:11.958Z,46.94
2022-08-19T18:09:52.627Z,46.86
2022-08-19T18:12:30.977Z,47.02
2022-08-19T18:15:08.452Z,47.08
2022-08-19T18:17:51.365Z,46.84
2022-08-19T18:20:30.309Z,46.77
2022-08-19T18:23:44.874Z,46.70
2022-08-19T18:26:09.149Z,46.91
2022-08-19T18:28:49.646Z,47.00
2022-08-19T18:31:25.819Z,47.19
2022-08-19T18:34:04.606Z,46.79
2022-08-19T18:36:53.505Z,47.00
2022-08-19T18:39:46.848Z,46.67
2022-08-19T18:42:37.677Z,46.93
2022-08-19T18:45:37.505Z,46.85
2022-08-19T18:48:30.923Z,46.95
2022-08-19T18:51:17.377Z,46.65
2022-08-19T18:53:53.587Z,46.89
2022-08-19T18:56:41.105Z,46.98
2022-08-19T18:59:16.297Z,47.12
2022-08-19T19:01:57.117Z,47.03
2022-08-19T19:04:41.267Z,46.97
2022-08-19T19:07:21.296Z,46.73
2022-08-19T19:09:55.332Z,46.95
2022-08-19T19:12:34.087Z,46.84
2022-08-19T19:15:11.101Z,47.08
2022-08-19T19:17:49.871Z,47.10
2022-08-19T19:20:36.198Z,47.01
2022-08-19T19:23:22.940Z,47.16
2022-08-19T19:26:01.962Z,46.75
2022-08-19T19:28:34.530Z,47.04
2022-08-19T19:31:18.090Z,46.95
2022-08-19T19:33:56.881Z,47.00
2022-08-19T19:36:32.571Z,46.96
2022-08-19T19:39:09.708Z,46.84
2022-08-19T19:41:42.883Z,47.09
2022-08-19T19:44:31.084Z,47.20
2022-08-19T19:47:11.749Z,46.77
2022-08-19T19:50:15.453Z,47.11
2022-08-19T19:53:03.896Z,47.20
2022-08-19T19:55:42.078Z,47.14
2022-08-19T19:58:28.571Z,46.89
2022-08-19T20:01:09.517Z,47.02
2022-08-19T20:03:46.902Z,46.94
2022-08-19T20:06:18.685Z,47.00
2022-08-19T20:09:43.607Z,46.93
2022-08-19T20:12:21.367Z,47.08
2022-08-19T20:14:57.736Z,47.14
2022-08-19T20:17:35.096Z,46.92
2022-08-19T20:20:14.912Z,46.92
2022-08-19T20:22:45.937Z,46.88
2022-08-19T20:25:22.270Z,47.04
2022-08-19T20:28:01.167Z,46.83
2022-08-19T20:30:42.668Z,46.79
2022-08-19T20:33:22.844Z,46.80
2022-08-19T20:35:55.943Z,47.02
2022-08-19T20:38:29.305Z,46.87
2022-08-19T20:41:00.044Z,46.84
2022-08-19T20:43:36.454Z,46.57
2022-08-19T20:46:20.250Z,46.90
2022-08-19T20:48:48.406Z,46.93
2022-08-19T20:51:24.818Z,46.89
2022-08-19T20:54:03.011Z,47.19
2022-08-19T20:56:40.878Z,46.80
2022-08-19T20:59:17.867Z,46.89
2022-08-19T21:01:51.968Z,47.03
2022-08-19T21:04:32.413Z,46.98
2022-08-19T21:07:07.796Z,47.17
2022-08-19T21:09:40.978Z,46.92
2022-08-19T21:12:17.779Z,46.79
2022-08-19T21:14:48.636Z,47.02
2022-08-19T21:17:22.141Z,47.01
2022-08-19T21:20:00.907Z,47.14
2022-08-19T21:22:37.056Z,46.67
2022-08-19T21:25:27.803Z,46.59
2022-08-19T21:28:00.730Z,46.65
2022-08-19T21:30:38.186Z,47.05
2022-08-19T21:33:19.535Z,46.94
2022-08-19T21:36:11.468Z,47.09
2022-08-19T21:38:45.406Z,46.74
2022-08-19T21:41:27.586Z,46.92
2022-08-19T21:44:04.451Z,46.88
2022-08-19T21:46:40.859Z,46.71
2022-08-19T21:49:19.654Z,46.85
2022-08-19T21:52:01.984Z,46.89
2022-08-19T21:54:43.564Z,46.91
2022-08-19T21:57:16.304Z,46.96
2022-08-19T21:59:49.553Z,47.08
2022-08-19T22:02:28.862Z,46.94
2022-08-19T22:05:05.593Z,47.10
2022-08-19T22:07:38.655Z,46.80
2022-08-19T22:10:14.332Z,46.92
2022-08-19T22:12:52.656Z,47.05
2022-08-19T22:15:35.200Z,47.00
2022-08-19T22:18:15.435Z,47.17
2022-08-19T22:20:54.786Z,46.99
2022-08-19T22:23:32.309Z,47.09
2022-08-19T22:26:09.135Z,46.92
2022-08-19T22:28:48.168Z,46.87
2022-08-19T22:31:28.077Z,46.88
2022-08-19T22:34:04.314Z,46.87
2022-08-19T22:36:45.800Z,46.81
2022-08-19T22:39:22.644Z,47.19
2022-08-19T22:41:58.695Z,46.91
2022-08-19T22:44:36.545Z,47.02
2022-08-19T22:47:10.708Z,46.93
2022-08-19T22:49:50.477Z,47.06
2022-08-19T22:52:23.804Z,47.04
2022-08-19T22:55:09.099Z,47.00
2022-08-19T22:57:54.633Z,46.98
2022-08-19T23:00:28.789Z,46.97
2022-08-19T23:03:02.324Z,47.03
2022-08-19T23:05:37.948Z,47.05
2022-08-19T23:08:16.217Z,47.00
2022-08-19T23:10:50.840Z,47.14
2022-08-19T23:13:27.859Z,47.23
2022-08-19T23:16:04.625Z,46.90
2022-08-19T23:18:36.607Z,46.81
2022-08-19T23:21:17.301Z,47.04
2022-08-19T23:23:50.950Z,47.04
2022-08-19T23:26:27.210Z,46.90
2022-08-19T23:29:21.169Z,47.06
2022-08-19T23:32:07.066Z,47.30
2022-08-19T23:34:42.576Z,46.99
2022-08-19T23:37:17.458Z,47.11
2022-08-19T23:39:56.401Z,46.89
2022-08-19T23:42:32.378Z,46.90
2022-08-19T23:45:08.982Z,46.82
2022-08-19T23:47:48.858Z,46.95
2022-08-19T23:50:23.675Z,46.76
2022-08-19T23:53:00.127Z,47.06
2022-08-19T23:55:48.587Z,46.86
2022-08-19T23:58:32.832Z,46.76
